Maldives Meteorological Service

TAFS

Station TAF
VRMM
VRMM 290500Z 2906/3012 25010KT 9999 FEW018 TEMPO 2906/2912 FEW019CB=
VRMH
VRMH 290500Z 2906/3006 27008KT 9999 FEW018 TEMPO 2908/2915 FEW018CB=
VRMK
VRMK 290500Z 2906/3006 25007KT 9999 FEW018 TEMPO 2910/2916 FEW019CB=
VRMT
VRMT 290500Z 2906/3006 26008KT 9999 FEW018 TEMPO 2909/2915 FEW019CB=
VRMG
VRMG 290500Z 2906/3012 25007KT 9999 FEW018 TEMPO 2906/2912 FEW018CB=